createdAt,value
2023-04-11T00:02:23.123Z,51.25
2023-04-11T00:04:49.734Z,50.36
2023-04-11T00:07:16.307Z,49.85
2023-04-11T00:09:44.602Z,50.37
2023-04-11T00:12:10.991Z,50.31
2023-04-11T00:14:38.205Z,49.67
2023-04-11T00:17:06.027Z,49.81
2023-04-11T00:19:33.393Z,49.26
2023-04-11T00:22:00.518Z,49.29
2023-04-11T00:24:27.276Z,49.75
2023-04-11T00:26:53.983Z,50.33
2023-04-11T00:29:20.507Z,50.23
2023-04-11T00:31:46.968Z,49.87
2023-04-11T00:34:13.548Z,49.34
2023-04-11T00:36:41.949Z,49.30
2023-04-11T00:39:09.685Z,49.96
2023-04-11T00:41:36.137Z,49.54
2023-04-11T00:44:02.715Z,49.09
2023-04-11T00:46:29.590Z,49.11
2023-04-11T00:48:56.510Z,49.84
2023-04-11T00:51:23.166Z,50.09
2023-04-11T00:53:49.831Z,49.76
2023-04-11T00:56:17.251Z,49.62
2023-04-11T00:58:43.829Z,49.65
2023-04-11T01:01:10.324Z,50.06
2023-04-11T01:03:38.814Z,50.10
2023-04-11T01:06:07.262Z,50.95
2023-04-11T01:08:35.202Z,50.27
2023-04-11T01:11:02.898Z,50.68
2023-04-11T01:13:30.923Z,50.37
2023-04-11T01:15:57.464Z,50.28
2023-04-11T01:18:25.616Z,49.99
2023-04-11T01:20:52.884Z,50.37
2023-04-11T01:23:26.275Z,50.59
2023-04-11T01:25:53.615Z,50.46
2023-04-11T01:28:20.966Z,49.93
2023-04-11T01:30:48.105Z,50.29
2023-04-11T01:33:15.975Z,50.00
2023-04-11T01:35:43.286Z,49.85
2023-04-11T01:38:10.681Z,50.63
2023-04-11T01:40:38.103Z,50.58
2023-04-11T01:43:07.134Z,50.12
2023-04-11T01:45:34.086Z,50.63
2023-04-11T01:48:05.812Z,50.61
2023-04-11T01:50:32.572Z,50.48
2023-04-11T01:52:59.283Z,50.35
2023-04-11T01:55:26.246Z,50.96
2023-04-11T01:57:53.647Z,50.45
2023-04-11T02:00:21.146Z,50.54
2023-04-11T02:02:48.140Z,50.48
2023-04-11T02:05:14.806Z,50.22
2023-04-11T02:07:41.422Z,50.91
2023-04-11T02:10:08.618Z,51.20
2023-04-11T02:12:35.249Z,51.18
2023-04-11T02:15:02.269Z,50.65
2023-04-11T02:17:31.114Z,51.13
2023-04-11T02:19:57.952Z,51.07
2023-04-11T02:22:25.008Z,51.57
2023-04-11T02:24:51.808Z,50.97
2023-04-11T02:27:18.543Z,50.23
2023-04-11T02:29:45.370Z,50.21
2023-04-11T02:32:12.165Z,50.08
2023-04-11T02:34:38.922Z,51.03
2023-04-11T02:37:05.696Z,50.64
2023-04-11T02:39:32.694Z,50.79
2023-04-11T02:41:59.313Z,50.54
2023-04-11T02:44:26.334Z,50.16
2023-04-11T02:46:53.419Z,49.96
2023-04-11T02:49:20.291Z,49.73
2023-04-11T02:51:47.466Z,51.01
2023-04-11T02:54:14.137Z,49.81
2023-04-11T02:56:41.293Z,50.35
2023-04-11T02:59:08.059Z,49.72
2023-04-11T03:01:34.922Z,51.03
2023-04-11T03:04:02.636Z,50.95
2023-04-11T03:06:31.169Z,49.91
2023-04-11T03:08:58.258Z,50.41
2023-04-11T03:11:24.907Z,49.73
2023-04-11T03:13:51.425Z,50.03
2023-04-11T03:16:17.881Z,49.34
2023-04-11T03:18:44.533Z,49.58
2023-04-11T03:21:11.589Z,50.56
2023-04-11T03:23:38.691Z,50.19
2023-04-11T03:26:06.154Z,49.86
2023-04-11T03:28:32.729Z,50.20
2023-04-11T03:30:59.370Z,49.86
2023-04-11T03:33:25.879Z,49.97
2023-04-11T03:35:52.543Z,48.79
2023-04-11T03:38:19.188Z,49.75
2023-04-11T03:40:45.646Z,49.33
2023-04-11T03:43:12.216Z,49.47
2023-04-11T03:45:38.581Z,49.23
2023-04-11T03:48:05.424Z,48.85
2023-04-11T03:50:31.901Z,49.28
2023-04-11T03:52:58.247Z,49.27
2023-04-11T03:55:26.152Z,49.63
2023-04-11T03:57:52.644Z,49.38
2023-04-11T04:00:20.045Z,49.62
2023-04-11T04:02:47.078Z,50.02
2023-04-11T04:05:13.809Z,50.29
2023-04-11T04:07:40.270Z,50.75
2023-04-11T04:10:07.475Z,51.15
2023-04-11T04:12:34.026Z,51.40
2023-04-11T04:15:00.858Z,53.40
2023-04-11T04:17:27.387Z,53.02
2023-04-11T04:19:54.926Z,53.18
2023-04-11T04:22:23.685Z,53.68
2023-04-11T04:24:50.413Z,53.60
2023-04-11T04:27:19.722Z,53.55
2023-04-11T04:29:47.096Z,53.01
2023-04-11T04:32:21.030Z,53.11
2023-04-11T04:34:55.099Z,54.22
2023-04-11T04:37:28.289Z,54.84
2023-04-11T04:39:56.434Z,55.09
2023-04-11T04:42:27.596Z,57.03
2023-04-11T04:44:55.496Z,59.05
2023-04-11T04:47:25.141Z,60.56
2023-04-11T04:49:56.103Z,65.09
2023-04-11T04:52:23.954Z,66.21
2023-04-11T04:54:50.372Z,67.11
2023-04-11T04:57:16.838Z,67.64
2023-04-11T04:59:47.431Z,72.33
2023-04-11T05:02:14.068Z,79.63
2023-04-11T05:04:42.017Z,81.24
2023-04-11T05:07:08.647Z,81.71
2023-04-11T05:09:35.021Z,83.78
2023-04-11T05:12:02.793Z,83.22
2023-04-11T05:14:33.203Z,83.03
2023-04-11T05:17:00.491Z,81.02
2023-04-11T05:19:26.991Z,79.18
2023-04-11T05:21:54.120Z,79.03
2023-04-11T05:24:20.537Z,79.05
2023-04-11T05:26:47.269Z,77.92
2023-04-11T05:29:16.199Z,78.60
2023-04-11T05:31:42.628Z,79.36
2023-04-11T05:34:10.076Z,79.20
2023-04-11T05:36:36.725Z,81.46
2023-04-11T05:39:03.901Z,78.30
2023-04-11T05:41:30.965Z,76.76
2023-04-11T05:43:57.787Z,77.40
2023-04-11T05:46:24.762Z,77.67
2023-04-11T05:48:52.128Z,77.29
2023-04-11T05:51:18.783Z,76.62
2023-04-11T05:53:45.722Z,75.56
2023-04-11T05:56:12.862Z,75.71
2023-04-11T05:58:42.040Z,76.12
2023-04-11T06:01:18.174Z,76.02
2023-04-11T06:03:48.236Z,76.67
2023-04-11T06:06:14.898Z,75.97
2023-04-11T06:08:42.833Z,76.06
2023-04-11T06:11:09.457Z,75.89
2023-04-11T06:13:36.120Z,76.13
2023-04-11T06:16:02.697Z,76.84
2023-04-11T06:18:29.246Z,77.74
2023-04-11T06:20:55.815Z,80.09
2023-04-11T06:23:22.492Z,81.04
2023-04-11T06:25:48.991Z,80.33
2023-04-11T06:28:15.754Z,81.40
2023-04-11T06:30:42.405Z,81.88
2023-04-11T06:33:09.324Z,81.49
2023-04-11T06:35:36.128Z,83.21
2023-04-11T06:38:02.861Z,83.91
2023-04-11T06:40:29.810Z,83.37
2023-04-11T06:43:00.201Z,83.01
2023-04-11T06:45:29.158Z,82.22
2023-04-11T06:47:56.164Z,83.32
2023-04-11T06:50:22.796Z,86.57
2023-04-11T06:52:49.393Z,85.65
2023-04-11T06:55:16.651Z,87.30
2023-04-11T06:57:43.756Z,87.28
2023-04-11T07:00:13.012Z,88.31
2023-04-11T07:02:40.074Z,87.67
2023-04-11T07:05:09.359Z,90.13
2023-04-11T07:07:36.517Z,90.21
2023-04-11T07:10:04.677Z,91.68
2023-04-11T07:12:33.505Z,92.69
2023-04-11T07:15:00.594Z,92.91
2023-04-11T07:17:27.623Z,94.23
2023-04-11T07:19:54.745Z,93.42
2023-04-11T07:22:21.886Z,93.52
2023-04-11T07:24:51.946Z,94.04
2023-04-11T07:27:18.863Z,93.61
2023-04-11T07:29:45.761Z,94.77
2023-04-11T07:32:12.258Z,93.59
2023-04-11T07:34:38.974Z,93.33
2023-04-11T07:37:06.425Z,93.65
2023-04-11T07:39:33.558Z,93.64
2023-04-11T07:42:00.496Z,92.31
2023-04-11T07:44:27.452Z,91.79
2023-04-11T07:46:54.048Z,91.86
2023-04-11T07:49:20.770Z,92.93
2023-04-11T07:51:47.501Z,92.91
2023-04-11T07:54:14.004Z,91.17
2023-04-11T07:56:51.167Z,91.27
2023-04-11T07:59:19.450Z,91.74
2023-04-11T08:01:46.264Z,91.51
2023-04-11T08:04:13.250Z,91.85
2023-04-11T08:06:39.941Z,91.63
2023-04-11T08:09:07.253Z,91.64
2023-04-11T08:11:34.110Z,91.43
2023-04-11T08:14:01.367Z,90.20
2023-04-11T08:16:28.139Z,89.14
2023-04-11T08:18:54.791Z,87.97
2023-04-11T08:21:23.635Z,88.84
2023-04-11T08:23:53.706Z,89.36
2023-04-11T08:26:21.137Z,88.98
2023-04-11T08:28:48.240Z,88.78
2023-04-11T08:31:15.959Z,88.38
2023-04-11T08:33:42.711Z,88.37
2023-04-11T08:36:10.558Z,86.32
2023-04-11T08:38:38.047Z,87.14
2023-04-11T08:41:04.886Z,86.37
2023-04-11T08:43:39.895Z,85.29
2023-04-11T08:46:08.807Z,84.85
2023-04-11T08:48:35.784Z,85.94
2023-04-11T08:51:02.330Z,86.14
2023-04-11T08:53:29.342Z,85.84
2023-04-11T08:55:55.856Z,85.27
2023-04-11T08:58:23.022Z,83.93
2023-04-11T09:00:49.538Z,85.09
2023-04-11T09:03:16.832Z,85.44
2023-04-11T09:05:44.789Z,83.53
2023-04-11T09:08:13.470Z,81.96
2023-04-11T09:10:41.689Z,82.28
2023-04-11T09:13:21.732Z,81.65
2023-04-11T09:15:48.951Z,81.86
2023-04-11T09:18:38.457Z,81.11
2023-04-11T09:21:10.100Z,80.33
2023-04-11T09:23:37.706Z,80.21
2023-04-11T09:26:08.971Z,79.02
2023-04-11T09:28:44.237Z,79.25
2023-04-11T09:31:13.460Z,80.36
2023-04-11T09:33:52.348Z,78.43
2023-04-11T09:36:24.150Z,78.14
2023-04-11T09:38:51.825Z,76.43
2023-04-11T09:41:30.352Z,75.01
2023-04-11T09:44:05.181Z,75.02
2023-04-11T09:47:09.692Z,74.07
2023-04-11T09:49:36.543Z,74.64
2023-04-11T09:52:03.276Z,73.21
2023-04-11T09:54:30.768Z,70.76
2023-04-11T09:56:57.823Z,68.81
2023-04-11T09:59:26.524Z,66.39
2023-04-11T10:01:53.323Z,66.80
2023-04-11T10:04:20.510Z,65.14
2023-04-11T10:07:03.830Z,62.98
2023-04-11T10:09:31.505Z,62.83
2023-04-11T10:11:58.116Z,61.57
2023-04-11T10:14:36.728Z,60.06
2023-04-11T10:17:23.995Z,60.25
2023-04-11T10:19:57.318Z,59.02
2023-04-11T10:22:46.342Z,58.74
2023-04-11T10:25:23.691Z,56.96
2023-04-11T10:28:06.130Z,53.09
2023-04-11T10:31:00.507Z,51.40
2023-04-11T10:33:28.095Z,47.80
2023-04-11T10:36:24.090Z,46.01
2023-04-11T10:38:51.353Z,43.45
2023-04-11T10:41:26.275Z,39.74
2023-04-11T10:43:53.890Z,41.67
2023-04-11T10:46:25.813Z,39.04
2023-04-11T10:49:05.396Z,41.91
2023-04-11T10:51:33.101Z,43.31
2023-04-11T10:54:00.443Z,44.06
2023-04-11T10:56:42.740Z,46.73
2023-04-11T10:59:31.177Z,55.53
2023-04-11T11:02:01.923Z,65.83
2023-04-11T11:04:32.765Z,72.50
2023-04-11T11:07:01.756Z,76.60
2023-04-11T11:09:28.815Z,80.65
2023-04-11T11:12:13.767Z,80.70
2023-04-11T11:14:44.715Z,82.39
2023-04-11T11:17:15.834Z,85.23
2023-04-11T11:19:46.755Z,86.05
2023-04-11T11:25:12.530Z,82.46
2023-04-11T11:27:40.054Z,78.27
2023-04-11T11:30:10.885Z,71.02
2023-04-11T11:32:38.467Z,68.40
2023-04-11T11:35:14.205Z,65.25
2023-04-11T11:37:40.769Z,68.22
2023-04-11T11:40:12.866Z,74.35
2023-04-11T11:42:40.053Z,77.04
2023-04-11T11:47:50.722Z,79.91
2023-04-11T11:50:33.112Z,83.04
2023-04-11T11:53:22.139Z,83.26
2023-04-11T11:55:48.846Z,83.38
2023-04-11T11:58:16.341Z,83.86
2023-04-11T12:00:42.787Z,86.22
2023-04-11T12:03:12.588Z,85.66
2023-04-11T12:05:39.473Z,86.33
2023-04-11T12:08:07.348Z,85.90
2023-04-11T12:10:37.971Z,86.76
2023-04-11T12:13:14.716Z,83.35
2023-04-11T12:15:43.605Z,83.67
2023-04-11T12:18:10.206Z,79.36
2023-04-11T12:20:36.835Z,74.08
2023-04-11T12:23:03.343Z,74.72
2023-04-11T12:25:30.528Z,66.76
2023-04-11T12:27:57.071Z,67.41
2023-04-11T12:30:24.261Z,66.30
2023-04-11T12:32:50.926Z,67.54
2023-04-11T12:35:17.482Z,61.53
2023-04-11T12:37:44.338Z,63.50
2023-04-11T12:40:12.144Z,59.84
2023-04-11T12:42:49.431Z,60.46
2023-04-11T12:45:22.075Z,60.81
2023-04-11T12:47:48.777Z,62.16
2023-04-11T12:50:15.342Z,59.53
2023-04-11T12:52:41.831Z,63.51
2023-04-11T12:55:09.753Z,63.03
2023-04-11T12:57:36.604Z,63.83
2023-04-11T13:00:11.585Z,62.28
2023-04-11T13:02:43.769Z,60.57
2023-04-11T13:05:13.915Z,60.76
2023-04-11T13:07:41.199Z,58.01
2023-04-11T13:10:08.058Z,56.76
2023-04-11T13:12:39.686Z,55.76
2023-04-11T13:15:08.070Z,58.71
2023-04-11T13:17:34.818Z,58.38
2023-04-11T13:20:01.402Z,60.26
2023-04-11T13:22:28.046Z,60.80
2023-04-11T13:24:54.586Z,59.33
2023-04-11T13:27:22.134Z,57.93
2023-04-11T13:29:49.087Z,55.82
2023-04-11T13:32:15.932Z,55.46
2023-04-11T13:34:42.649Z,54.30
2023-04-11T13:37:09.411Z,54.97
2023-04-11T13:39:36.422Z,52.74
2023-04-11T13:42:03.119Z,52.89
2023-04-11T13:44:29.664Z,52.33
2023-04-11T13:46:56.726Z,53.47
2023-04-11T13:49:23.394Z,52.56
2023-04-11T13:51:50.140Z,52.68
2023-04-11T13:54:17.209Z,54.04
2023-04-11T13:56:43.816Z,53.46
2023-04-11T13:59:10.659Z,53.62
2023-04-11T14:01:38.041Z,54.50
2023-04-11T14:04:05.015Z,57.94
2023-04-11T14:06:31.565Z,59.38
2023-04-11T14:08:58.909Z,59.11
2023-04-11T14:11:25.427Z,59.49
2023-04-11T14:13:51.830Z,56.93
2023-04-11T14:16:18.369Z,57.43
2023-04-11T14:18:45.222Z,57.58
2023-04-11T14:21:11.700Z,54.70
2023-04-11T14:23:38.417Z,53.58
2023-04-11T14:26:05.344Z,53.20
2023-04-11T14:28:33.668Z,51.36
2023-04-11T14:31:02.727Z,49.71
2023-04-11T14:33:33.362Z,52.58
2023-04-11T14:36:09.292Z,49.61
2023-04-11T14:38:38.326Z,49.14
2023-04-11T14:41:07.400Z,48.39
2023-04-11T14:43:39.278Z,49.12
2023-04-11T14:46:12.804Z,49.86
2023-04-11T14:48:40.434Z,51.02
2023-04-11T14:51:07.151Z,52.94
2023-04-11T14:53:33.635Z,50.08
2023-04-11T14:56:04.354Z,52.20
2023-04-11T14:58:30.818Z,51.83
2023-04-11T15:00:58.228Z,51.77
2023-04-11T15:03:25.325Z,52.60
2023-04-11T15:05:51.987Z,54.91
2023-04-11T15:08:18.610Z,54.83
2023-04-11T15:10:45.320Z,55.21
2023-04-11T15:13:12.916Z,54.14
2023-04-11T15:15:39.398Z,54.78
2023-04-11T15:18:19.697Z,54.24
2023-04-11T15:20:46.227Z,54.86
2023-04-11T15:23:12.748Z,50.81
2023-04-11T15:25:39.375Z,50.55
2023-04-11T15:28:05.820Z,52.83
2023-04-11T15:30:32.303Z,54.52
2023-04-11T15:32:59.255Z,55.43
2023-04-11T15:35:25.794Z,56.66
2023-04-11T15:37:52.184Z,56.22
2023-04-11T15:40:18.835Z,53.57
2023-04-11T15:42:45.679Z,54.31
2023-04-11T15:45:12.179Z,54.05
2023-04-11T15:47:38.619Z,51.22
2023-04-11T15:50:05.928Z,50.79
2023-04-11T15:52:36.516Z,48.93
2023-04-11T15:55:03.112Z,50.53
2023-04-11T15:57:29.737Z,49.50
2023-04-11T15:59:56.356Z,50.04
2023-04-11T16:02:23.084Z,49.29
2023-04-11T16:04:53.141Z,49.27
2023-04-11T16:07:23.053Z,50.70
2023-04-11T16:09:49.712Z,51.09
2023-04-11T16:12:16.217Z,52.39
2023-04-11T16:14:42.613Z,52.43
2023-04-11T16:17:09.048Z,54.04
2023-04-11T16:19:35.548Z,53.61
2023-04-11T16:22:02.027Z,54.33
2023-04-11T16:24:29.224Z,55.25
2023-04-11T16:26:57.167Z,56.12
2023-04-11T16:29:24.747Z,55.90
2023-04-11T16:31:51.276Z,56.11
2023-04-11T16:34:17.774Z,56.18
2023-04-11T16:36:44.522Z,54.71
2023-04-11T16:39:11.203Z,54.88
2023-04-11T16:41:37.725Z,56.02
2023-04-11T16:44:05.866Z,54.63
2023-04-11T16:46:33.378Z,54.37
2023-04-11T16:49:00.095Z,54.51
2023-04-11T16:51:27.370Z,55.10
2023-04-11T16:53:53.958Z,55.50
2023-04-11T16:56:21.473Z,55.12
2023-04-11T16:58:48.513Z,56.11
2023-04-11T17:01:15.448Z,55.10
2023-04-11T17:03:43.043Z,56.97
2023-04-11T17:06:16.948Z,53.66
2023-04-11T17:08:44.834Z,54.07
2023-04-11T17:11:11.511Z,52.93
2023-04-11T17:13:38.375Z,53.76
2023-04-11T17:16:06.115Z,54.30
2023-04-11T17:18:32.689Z,54.67
2023-04-11T17:20:59.470Z,55.09
2023-04-11T17:23:38.896Z,56.25
2023-04-11T17:26:06.172Z,55.81
2023-04-11T17:28:36.734Z,56.57
2023-04-11T17:31:13.124Z,57.83
2023-04-11T17:33:41.709Z,58.17
2023-04-11T17:36:11.249Z,60.63
2023-04-11T17:38:39.599Z,59.70
2023-04-11T17:41:14.228Z,60.38
2023-04-11T17:43:42.731Z,60.35
2023-04-11T17:46:09.423Z,60.00
2023-04-11T17:48:36.566Z,60.39
2023-04-11T17:51:05.699Z,61.19
2023-04-11T17:53:32.514Z,62.15
2023-04-11T17:56:03.312Z,61.62
2023-04-11T17:58:30.244Z,62.75
2023-04-11T18:00:57.314Z,64.21
2023-04-11T18:03:25.685Z,63.60
2023-04-11T18:05:53.987Z,64.65
2023-04-11T18:08:48.860Z,66.00
2023-04-11T18:11:21.636Z,66.52
2023-04-11T18:13:50.262Z,67.35
2023-04-11T18:16:17.942Z,67.43
2023-04-11T18:18:45.883Z,68.23
2023-04-11T18:21:12.402Z,68.86
2023-04-11T18:23:39.876Z,69.67
2023-04-11T18:26:06.408Z,70.16
2023-04-11T18:28:33.285Z,67.70
2023-04-11T18:30:59.768Z,64.93
2023-04-11T18:33:26.294Z,63.54
2023-04-11T18:35:52.750Z,63.09
2023-04-11T18:38:19.302Z,63.71
2023-04-11T18:40:46.206Z,63.55
2023-04-11T18:43:12.805Z,63.41
2023-04-11T18:45:40.315Z,63.03
2023-04-11T18:48:08.480Z,62.60
2023-04-11T18:50:38.810Z,62.22
2023-04-11T18:53:08.044Z,60.86
2023-04-11T18:55:36.651Z,61.44
2023-04-11T18:58:05.176Z,63.40
2023-04-11T19:00:34.514Z,65.66
2023-04-11T19:03:01.676Z,67.90
2023-04-11T19:05:28.514Z,69.41
2023-04-11T19:07:56.069Z,69.93
2023-04-11T19:10:22.605Z,71.19
2023-04-11T19:12:49.149Z,71.85
2023-04-11T19:15:15.880Z,71.58
2023-04-11T19:17:43.645Z,72.21
2023-04-11T19:20:12.929Z,74.27
2023-04-11T19:22:40.895Z,74.07
2023-04-11T19:25:11.573Z,74.02
2023-04-11T19:27:41.193Z,74.21
2023-04-11T19:30:08.820Z,74.33
2023-04-11T19:32:40.610Z,74.61
2023-04-11T19:35:09.972Z,75.83
2023-04-11T19:37:36.707Z,75.06
2023-04-11T19:40:07.314Z,74.50
2023-04-11T19:42:37.059Z,74.98
2023-04-11T19:45:04.786Z,74.81
2023-04-11T19:47:31.609Z,75.58
2023-04-11T19:50:01.126Z,76.13
2023-04-11T19:52:28.519Z,77.00
2023-04-11T19:54:56.367Z,76.96
2023-04-11T19:57:23.785Z,78.52
2023-04-11T19:59:50.780Z,78.62
2023-04-11T20:02:17.417Z,77.69
2023-04-11T20:04:45.755Z,78.66
2023-04-11T20:07:12.462Z,78.58
2023-04-11T20:09:39.453Z,78.02
2023-04-11T20:12:06.672Z,79.04
2023-04-11T20:14:33.529Z,78.75
2023-04-11T20:17:01.039Z,79.69
2023-04-11T20:19:29.504Z,79.67
2023-04-11T20:21:56.183Z,80.32
2023-04-11T20:24:23.779Z,80.13
2023-04-11T20:26:51.416Z,79.52
2023-04-11T20:29:21.270Z,80.20
2023-04-11T20:31:48.866Z,80.30
2023-04-11T20:34:15.386Z,80.58
2023-04-11T20:36:41.976Z,80.13
2023-04-11T20:39:08.482Z,80.09
2023-04-11T20:41:34.985Z,80.12
2023-04-11T20:44:01.908Z,81.64
2023-04-11T20:46:29.892Z,82.65
2023-04-11T20:48:56.735Z,83.16
2023-04-11T20:51:23.668Z,82.89
2023-04-11T20:53:50.546Z,82.14
2023-04-11T20:56:16.999Z,82.65
2023-04-11T20:58:45.975Z,82.80
2023-04-11T21:01:13.512Z,83.01
2023-04-11T21:03:42.398Z,82.94
2023-04-11T21:06:09.121Z,83.68
2023-04-11T21:08:37.397Z,83.96
2023-04-11T21:11:04.967Z,84.66
2023-04-11T21:13:32.729Z,84.12
2023-04-11T21:15:59.845Z,85.04
2023-04-11T21:18:26.594Z,85.13
2023-04-11T21:20:54.100Z,85.02
2023-04-11T21:23:20.674Z,85.95
2023-04-11T21:25:47.274Z,86.78
2023-04-11T21:28:13.843Z,86.45
2023-04-11T21:30:42.170Z,86.22
2023-04-11T21:33:10.714Z,87.31
2023-04-11T21:35:37.349Z,87.26
2023-04-11T21:38:03.959Z,87.22
2023-04-11T21:40:30.742Z,87.57
2023-04-11T21:42:57.312Z,87.89
2023-04-11T21:45:23.846Z,88.24
2023-04-11T21:47:51.133Z,89.54
2023-04-11T21:50:17.749Z,88.89
2023-04-11T21:52:45.206Z,89.09
2023-04-11T21:55:12.121Z,89.14
2023-04-11T21:57:38.673Z,89.14
2023-04-11T22:00:07.622Z,88.98
2023-04-11T22:02:35.716Z,89.52
2023-04-11T22:05:07.260Z,89.37
2023-04-11T22:07:46.417Z,89.16
2023-04-11T22:10:14.757Z,89.74
2023-04-11T22:12:41.786Z,89.40
2023-04-11T22:15:12.401Z,89.48
2023-04-11T22:17:41.736Z,89.84
2023-04-11T22:20:11.046Z,89.89
2023-04-11T22:22:38.837Z,90.59
2023-04-11T22:25:06.813Z,90.23
2023-04-11T22:27:34.563Z,90.75
2023-04-11T22:30:02.256Z,90.33
2023-04-11T22:32:30.088Z,90.20
2023-04-11T22:34:56.663Z,90.48
2023-04-11T22:37:23.299Z,90.50
2023-04-11T22:39:51.517Z,90.92
2023-04-11T22:42:18.011Z,90.98
2023-04-11T22:44:45.090Z,91.02
2023-04-11T22:47:13.644Z,91.21
2023-04-11T22:49:44.625Z,91.22
2023-04-11T22:52:15.158Z,91.17
2023-04-11T22:54:43.002Z,91.44
2023-04-11T22:57:09.878Z,91.38
2023-04-11T22:59:36.617Z,91.53
2023-04-11T23:02:05.066Z,91.38
2023-04-11T23:04:32.730Z,91.99
2023-04-11T23:06:59.508Z,91.60
2023-04-11T23:09:26.346Z,91.79
2023-04-11T23:11:53.483Z,91.78
2023-04-11T23:14:21.222Z,92.81
2023-04-11T23:16:48.025Z,92.17
2023-04-11T23:19:14.463Z,92.66
2023-04-11T23:21:41.100Z,92.73
2023-04-11T23:24:07.578Z,93.03
2023-04-11T23:26:34.070Z,93.72
2023-04-11T23:29:04.597Z,93.25
2023-04-11T23:31:31.832Z,93.40
2023-04-11T23:33:58.585Z,93.88
2023-04-11T23:36:27.483Z,94.82
2023-04-11T23:38:54.124Z,94.41
2023-04-11T23:41:20.783Z,95.25
2023-04-11T23:43:47.326Z,94.98
2023-04-11T23:46:16.968Z,94.68
2023-04-11T23:48:43.711Z,94.74
2023-04-11T23:51:10.082Z,94.86
2023-04-11T23:53:36.709Z,94.91
2023-04-11T23:56:03.199Z,94.89
2023-04-11T23:58:29.622Z,95.42
